Time;durP1;ratioP1;P1;durP2;ratioP2;P2;SDS_P1;SDS_P2;PMS_P1;PMS_P2;Temp;Humidity;BMP_temperature;BMP_pressure;BME280_temperature;BME280_humidity;BME280_pressure;Samples;Min_cycle;Max_cycle;Signal;HPM_P1;HPM_P2
2022/05/29 00:01:21;;;;;;;7.97;2.20;;;10.40;99.90;;;;;;5104120;27;20039;-67
2022/05/29 00:03:49;;;;;;;6.47;2.60;;;10.40;99.90;;;;;;5122795;27;20121;-67
2022/05/29 00:06:15;;;;;;;6.85;2.22;;;10.40;99.90;;;;;;5122986;27;20082;-66
2022/05/29 00:08:43;;;;;;;7.70;2.33;;;10.30;99.90;;;;;;5123150;27;20126;-67
2022/05/29 00:11:11;;;;;;;5.65;2.42;;;10.30;99.90;;;;;;5122506;27;20035;-67
2022/05/29 00:13:37;;;;;;;9.00;2.90;;;10.30;99.90;;;;;;5123522;27;20049;-68
2022/05/29 00:16:03;;;;;;;7.90;2.63;;;10.30;99.90;;;;;;5118149;27;20480;-67
2022/05/29 00:18:29;;;;;;;6.90;2.40;;;10.30;99.90;;;;;;5122458;27;20035;-67
2022/05/29 00:20:57;;;;;;;8.38;2.55;;;10.30;99.90;;;;;;5122908;27;20054;-67
2022/05/29 00:23:24;;;;;;;7.43;2.25;;;10.30;99.90;;;;;;5103170;27;20095;-67
2022/05/29 00:25:52;;;;;;;8.50;2.00;;;10.30;99.90;;;;;;5122011;27;20043;-67
2022/05/29 00:28:18;;;;;;;5.47;2.42;;;10.30;99.90;;;;;;5120687;27;20039;-68
2022/05/29 00:30:45;;;;;;;5.78;2.28;;;10.30;99.90;;;;;;5122524;27;20080;-67
2022/05/29 00:33:11;;;;;;;5.88;2.30;;;10.20;99.90;;;;;;5122884;27;20039;-66
2022/05/29 00:35:39;;;;;;;8.05;2.75;;;10.20;99.90;;;;;;5123082;27;20173;-68
2022/05/29 00:38:09;;;;;;;10.45;2.25;;;10.20;99.90;;;;;;5120333;27;20498;-67
2022/05/29 00:41:05;;;;;;;7.60;2.55;;;10.30;99.90;;;;;;5122493;27;20059;-67
2022/05/29 00:43:31;;;;;;;6.88;2.20;;;10.30;99.90;;;;;;5121039;27;20035;-67
2022/05/29 00:46:00;;;;;;;8.13;2.70;;;10.30;99.90;;;;;;5122680;27;20096;-68
2022/05/29 00:48:27;;;;;;;5.88;2.47;;;10.30;99.90;;;;;;5118406;27;20367;-68
2022/05/29 00:50:58;;;;;;;7.45;2.28;;;10.30;99.90;;;;;;5120795;27;20035;-67
2022/05/29 00:53:24;;;;;;;8.00;2.65;;;10.30;99.90;;;;;;5116420;27;20063;-67
2022/05/29 00:55:55;;;;;;;10.10;2.70;;;10.30;99.90;;;;;;5121349;27;20081;-67
2022/05/29 00:58:22;;;;;;;7.88;2.42;;;10.40;99.90;;;;;;5122263;27;20095;-67
2022/05/29 01:00:49;;;;;;;9.63;3.00;;;10.40;99.90;;;;;;5122391;27;20509;-67
2022/05/29 01:03:15;;;;;;;6.22;2.50;;;10.40;99.90;;;;;;5121882;27;20118;-67
2022/05/29 01:05:41;;;;;;;7.65;2.83;;;10.40;99.90;;;;;;5119584;27;20514;-67
2022/05/29 01:08:15;;;;;;;13.43;3.00;;;10.40;99.90;;;;;;5120891;27;20050;-67
2022/05/29 01:10:49;;;;;;;9.18;3.00;;;10.40;99.90;;;;;;5122577;27;20044;-67
2022/05/29 01:13:19;;;;;;;9.43;3.10;;;10.40;99.90;;;;;;5121265;27;20089;-67
2022/05/29 01:15:49;;;;;;;7.32;2.53;;;10.40;99.90;;;;;;5120825;27;20121;-67
2022/05/29 01:18:34;;;;;;;10.30;2.85;;;10.40;99.90;;;;;;5139133;27;20039;-67
2022/05/29 01:21:09;;;;;;;7.65;2.40;;;10.50;99.90;;;;;;5140139;27;20039;-67
2022/05/29 01:23:38;;;;;;;9.00;2.70;;;10.50;99.90;;;;;;5121701;27;20097;-67
2022/05/29 01:26:22;;;;;;;7.57;3.17;;;10.50;99.90;;;;;;5118957;27;20050;-67
2022/05/29 01:29:01;;;;;;;11.23;3.40;;;10.50;99.90;;;;;;5104814;27;20034;-69
2022/05/29 01:31:50;;;;;;;8.18;2.67;;;10.50;99.90;;;;;;5102154;27;20037;-67
2022/05/29 01:34:38;;;;;;;10.85;3.10;;;10.40;99.90;;;;;;5140424;27;20454;-67
2022/05/29 01:37:04;;;;;;;14.00;4.47;;;10.30;99.90;;;;;;5121084;27;20046;-67
2022/05/29 01:39:35;;;;;;;9.02;3.15;;;10.30;99.90;;;;;;5104810;27;20108;-68
2022/05/29 01:42:07;;;;;;;14.63;3.28;;;10.20;99.90;;;;;;5102395;27;20499;-67
2022/05/29 01:44:45;;;;;;;10.63;3.13;;;10.20;99.90;;;;;;5119905;27;20490;-66
2022/05/29 01:47:25;;;;;;;9.98;3.03;;;10.20;99.90;;;;;;5119335;27;20065;-68
2022/05/29 01:49:55;;;;;;;10.73;3.55;;;10.10;99.90;;;;;;5119347;27;20043;-67
2022/05/29 01:52:27;;;;;;;11.68;3.80;;;10.10;99.90;;;;;;5119108;27;20031;-67
2022/05/29 01:55:08;;;;;;;9.02;3.33;;;10.10;99.90;;;;;;5117770;27;20031;-67
2022/05/29 01:57:40;;;;;;;14.73;4.00;;;10.10;99.90;;;;;;5138148;27;20109;-67
2022/05/29 02:00:11;;;;;;;14.38;3.35;;;10.10;99.90;;;;;;5117860;27;20122;-67
2022/05/29 02:02:39;;;;;;;13.95;3.50;;;10.10;99.90;;;;;;5137448;27;20035;-67
2022/05/29 02:05:09;;;;;;;10.25;3.40;;;10.10;99.90;;;;;;5123270;27;20047;-67
2022/05/29 02:07:50;;;;;;;11.80;3.13;;;10.10;99.90;;;;;;5120290;27;20049;-67
2022/05/29 02:10:41;;;;;;;14.00;3.17;;;10.20;99.90;;;;;;5120801;27;20038;-67
2022/05/29 02:13:30;;;;;;;8.95;2.80;;;10.10;99.90;;;;;;5117185;27;20036;-67
2022/05/29 02:16:07;;;;;;;12.55;3.15;;;10.10;99.90;;;;;;5120106;27;20043;-67
2022/05/29 02:18:46;;;;;;;7.03;2.33;;;10.20;99.90;;;;;;5119247;27;20181;-67
2022/05/29 02:21:43;;;;;;;9.43;2.35;;;10.20;99.90;;;;;;5119070;27;20470;-67
2022/05/29 02:24:15;;;;;;;9.05;2.25;;;10.20;99.90;;;;;;5115744;27;20035;-68
2022/05/29 02:26:49;;;;;;;8.23;2.22;;;10.20;99.90;;;;;;5118427;27;20111;-67
2022/05/29 02:29:14;;;;;;;10.25;2.40;;;10.20;99.90;;;;;;5119050;27;20035;-68
2022/05/29 02:31:53;;;;;;;6.72;2.28;;;10.20;99.90;;;;;;5103360;27;20091;-69
2022/05/29 02:34:31;;;;;;;9.70;2.60;;;10.20;99.90;;;;;;5140155;27;20038;-68
2022/05/29 02:37:21;;;;;;;7.78;2.58;;;10.20;99.90;;;;;;5122181;27;20081;-67
2022/05/29 02:39:59;;;;;;;12.05;3.42;;;10.20;99.90;;;;;;5120050;27;20042;-67
2022/05/29 02:42:38;;;;;;;7.85;2.70;;;10.20;99.90;;;;;;5137615;27;20077;-66
2022/05/29 02:45:07;;;;;;;8.82;3.33;;;10.20;99.90;;;;;;5120801;27;20043;-67
2022/05/29 02:47:39;;;;;;;9.07;3.05;;;10.10;99.90;;;;;;5119390;27;20081;-67
2022/05/29 02:50:27;;;;;;;7.50;2.42;;;10.20;99.90;;;;;;5136067;27;20091;-67
2022/05/29 02:52:56;;;;;;;11.75;2.80;;;10.20;99.90;;;;;;5117400;27;20035;-66
2022/05/29 02:55:23;;;;;;;11.60;2.70;;;10.10;99.90;;;;;;5103303;27;20475;-67
2022/05/29 02:57:57;;;;;;;8.13;2.90;;;10.10;99.90;;;;;;5118867;27;20110;-68
2022/05/29 03:00:24;;;;;;;7.72;2.42;;;10.10;99.90;;;;;;5115699;27;20367;-67
2022/05/29 03:03:04;;;;;;;9.20;2.83;;;10.10;99.90;;;;;;5118183;27;20476;-68
2022/05/29 03:05:55;;;;;;;9.48;2.63;;;10.10;99.90;;;;;;5117463;27;20226;-68
2022/05/29 03:08:31;;;;;;;9.65;3.05;;;10.10;99.90;;;;;;5119641;27;20038;-67
2022/05/29 03:11:33;;;;;;;8.52;2.70;;;10.10;99.90;;;;;;5119652;27;20731;-66
2022/05/29 03:14:19;;;;;;;8.35;2.80;;;10.10;99.90;;;;;;5112318;27;20060;-66
2022/05/29 03:17:06;;;;;;;8.93;2.95;;;10.10;99.90;;;;;;5116975;27;20050;-67
2022/05/29 03:20:01;;;;;;;9.27;3.10;;;10.10;99.90;;;;;;5101562;27;20038;-68
2022/05/29 03:22:53;;;;;;;8.23;2.70;;;10.10;99.90;;;;;;5118624;27;20042;-66
2022/05/29 03:25:32;;;;;;;15.20;3.60;;;10.10;99.90;;;;;;5119873;27;20051;-68
2022/05/29 03:28:00;;;;;;;14.13;3.63;;;10.10;99.90;;;;;;5138298;27;20035;-66
2022/05/29 03:30:36;;;;;;;13.23;3.08;;;10.10;99.90;;;;;;5124673;27;20439;-66
2022/05/29 03:33:06;;;;;;;11.57;3.22;;;10.10;99.90;;;;;;5125011;27;20050;-68
2022/05/29 03:35:45;;;;;;;7.93;3.15;;;10.10;99.90;;;;;;5127292;27;20485;-68
2022/05/29 03:38:10;;;;;;;8.13;3.00;;;10.10;99.90;;;;;;5125222;27;20087;-66
2022/05/29 03:40:36;;;;;;;12.75;3.60;;;10.00;99.90;;;;;;5145365;27;20102;-66
2022/05/29 03:43:02;;;;;;;10.65;2.97;;;10.00;99.90;;;;;;5123120;27;20035;-68
2022/05/29 03:45:29;;;;;;;8.95;3.08;;;10.00;99.90;;;;;;5125863;27;20039;-66
2022/05/29 03:47:55;;;;;;;9.27;2.85;;;10.00;99.90;;;;;;5127087;27;20038;-66
2022/05/29 03:50:22;;;;;;;11.45;3.20;;;10.00;99.90;;;;;;5128837;27;20067;-66
2022/05/29 03:52:49;;;;;;;12.48;3.28;;;10.00;99.90;;;;;;5124712;27;20057;-66
2022/05/29 03:55:16;;;;;;;11.02;2.95;;;10.00;99.90;;;;;;5125511;27;20079;-67
2022/05/29 03:57:42;;;;;;;11.07;3.72;;;10.00;99.90;;;;;;5124502;27;20043;-68
2022/05/29 04:00:10;;;;;;;8.70;2.70;;;10.00;99.90;;;;;;5126110;27;20047;-66
2022/05/29 04:02:36;;;;;;;9.93;3.20;;;10.10;99.90;;;;;;5126691;27;20039;-66
2022/05/29 04:05:02;;;;;;;12.50;3.35;;;10.10;99.90;;;;;;5127295;27;20035;-66
2022/05/29 04:12:57;;;;;;;12.38;3.35;;;10.10;99.90;;;;;;5123890;27;20038;-66
2022/05/29 04:15:23;;;;;;;11.48;3.50;;;10.10;99.90;;;;;;5123395;27;20371;-66
2022/05/29 04:17:49;;;;;;;10.02;3.10;;;10.10;99.90;;;;;;5125216;27;20051;-65
2022/05/29 04:20:15;;;;;;;12.73;3.13;;;10.00;99.90;;;;;;5124763;27;20047;-67
2022/05/29 04:22:41;;;;;;;10.35;3.25;;;10.10;99.90;;;;;;5126150;27;20036;-66
2022/05/29 04:25:07;;;;;;;9.27;3.42;;;10.10;99.90;;;;;;5126987;27;20172;-65
2022/05/29 04:27:33;;;;;;;7.50;2.97;;;10.10;99.90;;;;;;5125174;27;20068;-65
2022/05/29 04:29:59;;;;;;;9.98;3.28;;;10.20;99.90;;;;;;5126410;27;20150;-66
2022/05/29 04:35:09;;;;;;;10.50;3.17;;;10.20;99.90;;;;;;5142272;27;20115;-66
2022/05/29 04:37:35;;;;;;;16.55;3.83;;;10.20;99.90;;;;;;5124219;27;20126;-66
2022/05/29 04:40:00;;;;;;;10.45;3.05;;;10.20;99.90;;;;;;5126265;27;20134;-66
2022/05/29 04:42:26;;;;;;;10.27;3.33;;;10.20;99.90;;;;;;5124100;27;20355;-65
2022/05/29 04:44:52;;;;;;;9.82;3.13;;;10.20;99.90;;;;;;5123751;27;20035;-65
2022/05/29 04:47:18;;;;;;;10.15;3.40;;;10.30;99.90;;;;;;5120241;27;20039;-66
2022/05/29 04:49:44;;;;;;;11.93;3.13;;;10.30;99.90;;;;;;5122289;27;20027;-65
2022/05/29 04:52:10;;;;;;;8.45;2.78;;;10.30;99.90;;;;;;5121218;27;20036;-67
2022/05/29 04:54:40;;;;;;;13.18;3.10;;;10.40;99.90;;;;;;5122123;27;20126;-67
2022/05/29 04:57:08;;;;;;;11.20;3.17;;;10.40;99.90;;;;;;5121833;27;20057;-67
2022/05/29 04:59:35;;;;;;;13.18;2.70;;;10.50;99.90;;;;;;5123746;27;20038;-66
2022/05/29 05:02:03;;;;;;;10.05;3.22;;;10.50;99.90;;;;;;5102593;27;20066;-66
2022/05/29 05:04:29;;;;;;;11.55;3.33;;;10.60;99.90;;;;;;5120862;27;20147;-66
2022/05/29 05:06:59;;;;;;;12.23;2.80;;;10.60;99.90;;;;;;5121937;27;20035;-69
2022/05/29 05:09:29;;;;;;;8.65;2.75;;;10.60;99.90;;;;;;5118438;27;20334;-67
2022/05/29 05:11:56;;;;;;;7.28;2.97;;;10.70;99.90;;;;;;5120241;27;20035;-66
2022/05/29 05:14:23;;;;;;;8.82;2.85;;;10.80;99.90;;;;;;5125707;27;20057;-65
2022/05/29 05:16:50;;;;;;;10.90;3.00;;;10.80;99.90;;;;;;5120387;27;20479;-65
2022/05/29 05:19:16;;;;;;;8.82;2.95;;;10.80;99.90;;;;;;5122513;27;20069;-67
2022/05/29 05:21:42;;;;;;;8.75;2.78;;;10.90;99.90;;;;;;5119779;27;20035;-65
2022/05/29 05:24:09;;;;;;;10.07;3.28;;;10.90;99.90;;;;;;5124341;27;20066;-65
2022/05/29 05:26:35;;;;;;;14.18;3.65;;;10.80;99.90;;;;;;5103556;27;20048;-65
2022/05/29 05:29:00;;;;;;;9.05;3.33;;;10.80;99.90;;;;;;5122392;27;20093;-65
2022/05/29 05:31:26;;;;;;;12.82;3.05;;;10.80;99.90;;;;;;5122212;27;20415;-66
2022/05/29 05:33:53;;;;;;;9.77;2.75;;;10.70;99.90;;;;;;5123358;27;20495;-66
2022/05/29 05:36:20;;;;;;;10.45;2.95;;;10.80;99.90;;;;;;5121858;27;20432;-66
2022/05/29 05:38:51;;;;;;;10.68;2.75;;;10.80;99.90;;;;;;5120018;27;20093;-66
2022/05/29 05:41:17;;;;;;;7.65;2.20;;;10.80;99.90;;;;;;5119681;27;20047;-66
2022/05/29 05:43:42;;;;;;;8.68;2.28;;;10.80;99.90;;;;;;5105270;27;20428;-66
2022/05/29 05:46:10;;;;;;;9.90;2.60;;;10.80;99.90;;;;;;5121565;27;20039;-68
2022/05/29 05:48:37;;;;;;;8.77;2.33;;;10.90;99.90;;;;;;5119658;27;20463;-66
2022/05/29 05:51:10;;;;;;;10.10;2.65;;;10.90;99.90;;;;;;5104198;27;20039;-66
2022/05/29 05:53:37;;;;;;;8.80;2.38;;;10.90;99.90;;;;;;5108730;27;20427;-67
2022/05/29 05:56:07;;;;;;;10.75;2.53;;;10.90;99.90;;;;;;5116434;27;20117;-67
2022/05/29 05:58:33;;;;;;;11.13;2.60;;;11.00;99.90;;;;;;5119947;27;20099;-66
2022/05/29 06:01:04;;;;;;;7.88;3.03;;;11.10;99.90;;;;;;5120851;27;20046;-65
2022/05/29 06:03:30;;;;;;;7.95;2.35;;;11.20;99.90;;;;;;5119747;27;20035;-65
2022/05/29 06:05:55;;;;;;;10.00;2.13;;;11.20;99.90;;;;;;5119148;27;20165;-66
2022/05/29 06:08:21;;;;;;;7.97;2.80;;;11.30;99.90;;;;;;5121095;27;20038;-66
2022/05/29 06:10:47;;;;;;;8.00;2.20;;;11.40;99.90;;;;;;5119504;27;20359;-67
2022/05/29 06:13:12;;;;;;;10.45;2.30;;;11.60;99.90;;;;;;5119263;27;20046;-66
2022/05/29 06:15:38;;;;;;;8.45;2.13;;;11.70;99.90;;;;;;5103728;27;20039;-66
2022/05/29 06:18:04;;;;;;;11.43;2.58;;;11.80;99.90;;;;;;5104123;27;20125;-65
2022/05/29 06:20:30;;;;;;;7.40;2.13;;;11.90;99.90;;;;;;5119651;27;20051;-65
2022/05/29 06:22:56;;;;;;;11.75;2.42;;;12.00;99.90;;;;;;5101084;27;20032;-67
2022/05/29 06:25:26;;;;;;;10.63;2.75;;;12.20;99.90;;;;;;5118531;27;20142;-67
2022/05/29 06:27:52;;;;;;;14.65;2.85;;;12.50;99.90;;;;;;5102170;27;20035;-65
2022/05/29 06:30:18;;;;;;;10.02;2.67;;;13.00;99.90;;;;;;5091976;27;20470;-66
2022/05/29 06:32:43;;;;;;;8.77;2.22;;;13.20;99.90;;;;;;5089856;27;20105;-66
2022/05/29 06:35:11;;;;;;;9.77;2.47;;;13.40;99.90;;;;;;5112705;27;20299;-67
2022/05/29 06:37:37;;;;;;;9.75;1.92;;;13.40;99.90;;;;;;5113886;27;20081;-66
2022/05/29 06:40:07;;;;;;;10.52;2.45;;;13.30;99.90;;;;;;5118756;27;20098;-67
2022/05/29 06:42:35;;;;;;;7.55;2.25;;;13.20;99.90;;;;;;5116325;27;20042;-67
2022/05/29 06:45:05;;;;;;;11.07;2.30;;;13.10;99.90;;;;;;5115005;27;20489;-65
2022/05/29 06:47:33;;;;;;;9.30;2.30;;;13.00;99.90;;;;;;5117198;27;20090;-67
2022/05/29 06:50:00;;;;;;;9.70;2.33;;;12.90;99.90;;;;;;5135862;27;20149;-66
2022/05/29 06:52:31;;;;;;;8.90;2.38;;;12.90;99.90;;;;;;5132938;27;20031;-65
2022/05/29 06:55:02;;;;;;;8.98;2.25;;;12.70;99.90;;;;;;5116978;27;20129;-66
2022/05/29 06:57:37;;;;;;;6.22;1.85;;;12.50;99.90;;;;;;5133279;27;20371;-66
2022/05/29 07:08:31;;;;;;;10.15;2.50;;;12.30;99.90;;;;;;5094130;27;20120;-66
2022/05/29 07:11:05;;;;;;;9.35;2.42;;;12.30;99.90;;;;;;5111792;27;20046;-66
2022/05/29 07:13:31;;;;;;;;;;;12.30;99.90;;;;;;5115639;27;20043;-66
2022/05/29 07:15:58;;;;;;;13.93;2.58;;;12.30;99.90;;;;;;5098470;27;20116;-67
2022/05/29 07:18:23;;;;;;;12.55;2.67;;;12.40;99.90;;;;;;5117438;27;20035;-66
2022/05/29 07:21:02;;;;;;;13.70;2.28;;;12.40;99.90;;;;;;5119178;27;20039;-68
2022/05/29 07:23:28;;;;;;;7.22;1.90;;;12.60;99.90;;;;;;5109152;27;20367;-69
2022/05/29 07:25:55;;;;;;;12.63;2.58;;;12.60;99.90;;;;;;5090972;27;20109;-68
2022/05/29 07:28:22;;;;;;;11.68;2.35;;;12.60;99.90;;;;;;5115783;27;20031;-67
2022/05/29 07:30:49;;;;;;;12.30;2.30;;;12.70;99.90;;;;;;5127654;27;20466;-67
2022/05/29 07:33:14;;;;;;;8.93;1.95;;;12.80;99.90;;;;;;5112170;27;20030;-67
2022/05/29 07:35:41;;;;;;;13.18;2.50;;;12.80;99.90;;;;;;5121354;27;20042;-67
2022/05/29 07:38:07;;;;;;;13.05;2.65;;;12.90;99.90;;;;;;5100861;27;20333;-65
2022/05/29 07:40:33;;;;;;;8.63;2.05;;;13.00;99.90;;;;;;5129659;27;20060;-66
2022/05/29 07:46:00;;;;;;;11.30;2.20;;;13.10;99.90;;;;;;5060306;28;20091;-68
2022/05/29 07:48:28;;;;;;;11.15;2.00;;;13.00;99.90;;;;;;5090742;27;20040;-65
2022/05/29 07:50:55;;;;;;;19.00;3.40;;;13.10;99.90;;;;;;5113719;27;20473;-66
2022/05/29 07:53:21;;;;;;;10.98;2.42;;;13.20;99.90;;;;;;5126644;27;20035;-66
2022/05/29 07:55:46;;;;;;;10.02;2.20;;;13.00;99.90;;;;;;5113714;27;20046;-65
2022/05/29 07:58:14;;;;;;;9.90;1.77;;;12.90;99.90;;;;;;5120079;27;20035;-68
2022/05/29 08:00:43;;;;;;;9.27;2.60;;;12.90;99.90;;;;;;5138709;27;20114;-69
2022/05/29 08:03:08;;;;;;;11.13;2.20;;;12.90;99.90;;;;;;5139295;27;20109;-68
2022/05/29 08:05:36;;;;;;;9.70;2.00;;;12.80;99.90;;;;;;5139579;27;20694;-67
2022/05/29 08:08:05;;;;;;;7.32;1.52;;;12.80;99.90;;;;;;5130015;27;20393;-72
2022/05/29 08:10:35;;;;;;;9.38;1.95;;;12.80;99.90;;;;;;5134976;27;20034;-65
2022/05/29 08:13:01;;;;;;;8.70;1.88;;;12.80;99.90;;;;;;5116332;27;20043;-65
2022/05/29 08:15:27;;;;;;;6.50;2.13;;;12.80;99.90;;;;;;5117412;27;20064;-65
2022/05/29 08:17:53;;;;;;;8.15;1.98;;;12.90;99.90;;;;;;5138178;27;20046;-65
2022/05/29 08:20:19;;;;;;;8.32;2.03;;;13.00;99.90;;;;;;5122715;27;20087;-65
2022/05/29 08:22:45;;;;;;;8.20;2.30;;;13.10;99.90;;;;;;5119727;27;20122;-67
2022/05/29 08:30:46;;;;;;;6.25;1.42;;;13.40;99.90;;;;;;5120538;27;20039;-66
2022/05/29 08:33:15;;;;;;;6.93;1.80;;;13.60;99.90;;;;;;5139324;27;20088;-65
2022/05/29 08:35:44;;;;;;;7.68;1.95;;;13.40;99.90;;;;;;5140893;27;20035;-66
2022/05/29 08:38:11;;;;;;;7.72;1.52;;;13.50;99.90;;;;;;5122666;27;20031;-66
2022/05/29 08:40:46;;;;;;;4.15;1.60;;;13.50;99.90;;;;;;5140890;27;20027;-65
2022/05/29 08:43:22;;;;;;;9.02;1.98;;;13.50;99.90;;;;;;5136257;27;20119;-65
2022/05/29 08:45:50;;;;;;;10.50;2.15;;;13.50;99.90;;;;;;5137353;27;20043;-65
2022/05/29 08:48:19;;;;;;;10.07;1.88;;;13.60;99.90;;;;;;5151810;27;20122;-65
2022/05/29 08:50:57;;;;;;;7.20;1.55;;;13.60;99.90;;;;;;5141227;27;20467;-66
2022/05/29 08:53:43;;;;;;;9.95;2.00;;;13.60;99.90;;;;;;5104539;27;20042;-66
2022/05/29 08:56:17;;;;;;;9.13;1.90;;;13.70;99.90;;;;;;5103274;27;20287;-65
2022/05/29 08:58:43;;;;;;;;;;;13.90;99.90;;;;;;5124558;27;20435;-66
2022/05/29 09:01:26;;;;;;;7.20;1.85;;;14.10;99.90;;;;;;5139649;27;19915;-66
2022/05/29 09:03:56;;;;;;;5.63;1.85;;;14.10;99.90;;;;;;5128313;27;20080;-67
2022/05/29 09:06:35;;;;;;;8.32;1.85;;;14.30;99.90;;;;;;5136327;27;20043;-67
2022/05/29 09:09:30;;;;;;;7.07;1.38;;;14.40;99.90;;;;;;5136161;27;20043;-66
2022/05/29 09:12:00;;;;;;;3.75;1.27;;;14.60;99.90;;;;;;5152379;27;20438;-66
2022/05/29 09:14:44;;;;;;;4.55;1.42;;;14.90;99.90;;;;;;5129229;27;20041;-66
2022/05/29 09:17:35;;;;;;;4.70;1.55;;;15.00;99.90;;;;;;5114472;27;20097;-66
2022/05/29 09:20:18;;;;;;;6.82;1.70;;;15.10;99.90;;;;;;5127387;27;20050;-66
2022/05/29 09:22:47;;;;;;;8.05;1.90;;;14.90;99.90;;;;;;5106016;27;20424;-65
2022/05/29 09:25:31;;;;;;;7.43;1.60;;;14.90;99.90;;;;;;5104890;27;20572;-66
2022/05/29 09:28:06;;;;;;;4.05;1.20;;;15.00;99.90;;;;;;5120923;27;20049;-66
2022/05/29 09:30:32;;;;;;;9.45;1.85;;;15.10;99.90;;;;;;5119780;27;20057;-66
2022/05/29 09:33:00;;;;;;;7.63;1.98;;;15.30;99.90;;;;;;5121316;27;20479;-66
2022/05/29 09:35:47;;;;;;;7.00;1.80;;;15.50;99.90;;;;;;5120411;27;20157;-66
2022/05/29 09:38:28;;;;;;;4.78;1.23;;;15.40;99.90;;;;;;5119263;27;20084;-65
2022/05/29 09:41:04;;;;;;;6.53;1.45;;;15.30;99.90;;;;;;5119500;27;20078;-66
2022/05/29 09:43:33;;;;;;;8.52;1.45;;;15.30;99.90;;;;;;5116793;27;20147;-66
2022/05/29 09:46:17;;;;;;;6.22;1.77;;;15.20;99.90;;;;;;5121605;27;20088;-64
2022/05/29 09:51:40;;;;;;;3.90;1.23;;;15.30;99.90;;;;;;5120429;27;20039;-65
2022/05/29 09:54:13;;;;;;;5.68;1.10;;;15.40;99.90;;;;;;5115685;27;20045;-66
2022/05/29 09:56:38;;;;;;;3.53;1.17;;;15.60;99.90;;;;;;5121696;27;20042;-66
2022/05/29 09:59:19;;;;;;;4.50;1.25;;;15.90;99.90;;;;;;5141124;27;20034;-68
2022/05/29 10:01:49;;;;;;;5.25;1.17;;;15.70;99.90;;;;;;5121750;27;20110;-66
2022/05/29 10:04:37;;;;;;;7.95;1.33;;;15.90;99.90;;;;;;5140002;27;20043;-66
2022/05/29 10:07:14;;;;;;;6.00;1.17;;;15.70;99.90;;;;;;5118691;27;20622;-66
2022/05/29 10:10:02;;;;;;;7.53;1.70;;;15.60;99.90;;;;;;5127233;27;20038;-66
2022/05/29 10:12:44;;;;;;;5.18;1.50;;;15.70;99.90;;;;;;5136109;27;20034;-67
2022/05/29 10:15:26;;;;;;;5.72;1.85;;;15.50;99.90;;;;;;5128826;27;20042;-66
2022/05/29 10:18:01;;;;;;;4.93;1.20;;;15.40;99.90;;;;;;5113405;27;20089;-66
2022/05/29 10:20:33;;;;;;;5.55;1.33;;;15.30;99.90;;;;;;5120590;27;20110;-66
2022/05/29 10:23:02;;;;;;;3.45;1.02;;;15.10;99.90;;;;;;5136298;27;20065;-68
2022/05/29 10:25:32;;;;;;;4.97;1.05;;;15.20;99.90;;;;;;5119597;27;20092;-66
2022/05/29 10:28:02;;;;;;;5.28;1.20;;;14.90;99.90;;;;;;5120513;27;20038;-66
2022/05/29 10:30:41;;;;;;;4.18;0.90;;;15.10;99.90;;;;;;5103391;27;20382;-66
2022/05/29 10:33:11;;;;;;;3.97;1.27;;;15.30;99.90;;;;;;5121101;27;20039;-67
2022/05/29 10:35:39;;;;;;;4.05;1.27;;;15.40;99.90;;;;;;5121421;27;20122;-68
2022/05/29 10:38:18;;;;;;;2.75;1.02;;;15.60;99.90;;;;;;5138139;27;20041;-67
2022/05/29 10:40:46;;;;;;;2.25;0.75;;;15.60;99.90;;;;;;5119699;27;20035;-68
2022/05/29 10:43:15;;;;;;;4.47;1.15;;;15.80;99.90;;;;;;5124945;27;20027;-66
2022/05/29 10:45:44;;;;;;;5.35;1.20;;;15.90;99.90;;;;;;5126638;27;20069;-65
2022/05/29 10:48:48;;;;;;;4.63;1.55;;;15.80;99.90;;;;;;5145081;27;20045;-66
2022/05/29 10:51:23;;;;;;;4.38;1.20;;;15.90;99.90;;;;;;5106033;27;20371;-65
2022/05/29 10:54:27;;;;;;;5.50;1.55;;;15.60;99.90;;;;;;5118722;27;20473;-68
2022/05/29 10:57:48;;;;;;;6.47;1.58;;;15.70;99.90;;;;;;5125836;27;20034;-69
2022/05/29 11:00:30;;;;;;;9.63;1.83;;;15.50;99.90;;;;;;5112469;27;20055;-67
2022/05/29 11:03:21;;;;;;;7.40;1.38;;;15.20;99.90;;;;;;5102667;27;20032;-68
2022/05/29 11:05:59;;;;;;;6.28;1.52;;;14.90;99.90;;;;;;5116810;27;20410;-67
2022/05/29 11:08:40;;;;;;;5.90;1.30;;;14.50;99.90;;;;;;5101944;27;20127;-68
2022/05/29 11:11:19;;;;;;;7.50;1.60;;;14.20;99.90;;;;;;5102707;27;20098;-67
2022/05/29 11:14:08;;;;;;;5.90;1.27;;;14.10;99.90;;;;;;5116089;27;20035;-67
2022/05/29 11:16:43;;;;;;;3.63;1.55;;;13.90;99.90;;;;;;5119465;27;20117;-68
2022/05/29 11:19:39;;;;;;;8.63;1.58;;;13.70;99.90;;;;;;5127153;27;20154;-66
2022/05/29 11:22:26;;;;;;;5.63;1.60;;;13.70;99.90;;;;;;5142344;27;20370;-66
2022/05/29 11:24:59;;;;;;;10.43;1.63;;;13.90;99.90;;;;;;5121668;27;20080;-69
2022/05/29 11:27:47;;;;;;;4.35;1.50;;;14.20;99.90;;;;;;5121437;27;20417;-66
2022/05/29 11:30:43;;;;;;;3.97;1.17;;;14.30;99.90;;;;;;5123579;27;20030;-66
2022/05/29 11:33:20;;;;;;;5.53;1.38;;;14.60;99.90;;;;;;5120274;27;20035;-67
2022/05/29 11:36:03;;;;;;;4.88;1.48;;;14.80;99.90;;;;;;5119498;27;20046;-67
2022/05/29 11:38:58;;;;;;;4.85;1.65;;;15.20;99.90;;;;;;5121866;27;20104;-67
2022/05/29 11:41:26;;;;;;;;;;;15.30;99.90;;;;;;5103545;27;20039;-68
2022/05/29 11:44:06;;;;;;;6.65;1.70;;;15.20;99.90;;;;;;5104011;27;19927;-66
2022/05/29 11:52:32;;;;;;;;;;;14.90;99.90;;;;;;5144625;27;20123;-67
2022/05/29 11:55:03;;;;;;;5.50;1.42;;;14.90;99.90;;;;;;5123851;27;20040;-68
2022/05/29 11:57:36;;;;;;;5.65;1.38;;;14.90;99.90;;;;;;5126724;27;20078;-68
2022/05/29 12:00:17;;;;;;;5.07;1.17;;;15.10;99.90;;;;;;5145577;27;20049;-69
2022/05/29 12:02:49;;;;;;;3.50;0.88;;;15.10;99.90;;;;;;5124674;27;20340;-66
2022/05/29 12:05:44;;;;;;;3.30;1.23;;;15.20;99.90;;;;;;5124404;27;20065;-68
2022/05/29 12:08:42;;;;;;;3.97;1.10;;;15.30;99.90;;;;;;5144158;27;20114;-67
2022/05/29 12:11:26;;;;;;;4.63;1.38;;;15.50;99.90;;;;;;5144066;27;20100;-67
2022/05/29 12:14:05;;;;;;;5.28;1.13;;;15.70;99.90;;;;;;5127857;27;20046;-67
2022/05/29 12:16:32;;;;;;;6.07;1.10;;;15.70;99.90;;;;;;5128451;27;20055;-67
2022/05/29 12:19:02;;;;;;;3.05;1.00;;;15.70;99.90;;;;;;5125865;27;20047;-67
2022/05/29 12:21:45;;;;;;;5.60;1.35;;;15.60;99.90;;;;;;5126678;27;20046;-68
2022/05/29 12:24:21;;;;;;;5.13;1.30;;;15.50;99.90;;;;;;5126169;27;20060;-69
2022/05/29 12:27:08;;;;;;;5.78;1.30;;;15.60;99.90;;;;;;5105759;27;20047;-68
2022/05/29 12:29:42;;;;;;;4.22;1.23;;;15.40;99.90;;;;;;5151230;27;20034;-68
2022/05/29 12:32:30;;;;;;;3.92;1.30;;;15.30;99.90;;;;;;5146693;27;20522;-67
2022/05/29 12:34:59;;;;;;;5.13;1.38;;;15.20;99.90;;;;;;5123405;27;20050;-64
2022/05/29 12:37:52;;;;;;;7.15;1.23;;;15.10;99.90;;;;;;5117894;27;20459;-65
2022/05/29 12:40:55;;;;;;;3.63;1.10;;;15.10;99.90;;;;;;5138497;27;20108;-65
2022/05/29 12:43:38;;;;;;;6.55;1.50;;;15.10;99.90;;;;;;5139770;27;20032;-64
2022/05/29 12:46:10;;;;;;;4.90;1.20;;;15.10;99.90;;;;;;5117753;27;20126;-65
2022/05/29 12:48:54;;;;;;;4.70;1.20;;;15.00;99.90;;;;;;5138191;27;20512;-65
2022/05/29 12:51:34;;;;;;;5.13;1.20;;;15.20;99.90;;;;;;5139607;27;20165;-66
2022/05/29 12:54:26;;;;;;;6.63;1.73;;;15.20;99.90;;;;;;5146124;27;20667;-67
2022/05/29 12:57:29;;;;;;;5.95;1.20;;;15.10;99.90;;;;;;5139402;27;20039;-66
2022/05/29 13:00:23;;;;;;;5.40;1.60;;;14.90;99.90;;;;;;5139898;27;20042;-65
2022/05/29 13:03:26;;;;;;;4.90;1.30;;;14.70;99.90;;;;;;5140804;27;20067;-65
2022/05/29 13:06:22;;;;;;;6.25;1.30;;;14.60;99.90;;;;;;5138163;27;20031;-66
2022/05/29 13:09:06;;;;;;;5.95;1.45;;;14.60;99.90;;;;;;5120676;27;20074;-67
2022/05/29 13:11:34;;;;;;;;;;;14.60;99.90;;;;;;5145224;27;20067;-65
2022/05/29 13:14:07;;;;;;;4.57;1.35;;;14.60;99.90;;;;;;5144681;27;19923;-66
2022/05/29 13:16:39;;;;;;;8.48;1.33;;;14.70;99.90;;;;;;5120413;27;20373;-66
2022/05/29 13:21:57;;;;;;;5.65;1.20;;;15.00;99.90;;;;;;5140790;27;20400;-68
2022/05/29 13:24:26;;;;;;;11.23;1.73;;;15.10;99.90;;;;;;5123721;27;20045;-67
2022/05/29 13:27:09;;;;;;;5.47;1.50;;;15.20;99.90;;;;;;5139341;27;20167;-67
2022/05/29 13:29:47;;;;;;;10.60;4.35;;;15.50;99.90;;;;;;5118224;27;20034;-68
2022/05/29 13:32:13;;;;;;;11.55;4.43;;;15.40;99.90;;;;;;5120641;27;20070;-65
2022/05/29 13:34:40;;;;;;;5.88;2.08;;;15.20;99.90;;;;;;5137693;27;20027;-66
2022/05/29 13:37:36;;;;;;;6.00;1.52;;;15.30;99.90;;;;;;5139656;27;20074;-65
2022/05/29 13:40:40;;;;;;;14.43;8.20;;;15.20;99.90;;;;;;5121351;27;20070;-68
2022/05/29 13:43:16;;;;;;;4.32;1.73;;;14.80;99.90;;;;;;5137465;27;20390;-65
2022/05/29 13:45:42;;;;;;;7.63;1.60;;;14.50;99.90;;;;;;5119356;27;20050;-65
2022/05/29 13:48:30;;;;;;;6.40;1.70;;;14.40;99.90;;;;;;5138877;27;20043;-66
2022/05/29 13:51:18;;;;;;;7.57;1.70;;;14.20;99.90;;;;;;5103295;27;20030;-65
2022/05/29 13:53:49;;;;;;;10.63;1.85;;;14.00;99.90;;;;;;5114689;27;20057;-65
2022/05/29 13:56:18;;;;;;;7.68;1.63;;;13.80;99.90;;;;;;5119676;27;20075;-65